This website uses _ga and _gid cookies owned by Google Analytics, persistent for 2 years, to enable the single visit control function with a view to allowing you to browse around the website. If you continue browsing, we will assume you agree with their usage. You may revoke your consent and obtain further information by consulting our Cookies Policy.

Fil

Fil led opal suspended/surface14741433FIL LED G2 OPAL SUS 9200 WW GR.

Suspended or mounted surface luminaire model FIL LED G2 OPAL SUS 9200 WW GR., LAMP brand. Made of satin grey painted extruded aluminium with opal polycarbonate diffuser. Model for MID-POWER LED, warm white colour temperature and control gear included. With opal polycarbonate diffuser. With a IP42, IK07 protection rating. Insulation class I.
Power:
55W
Color temperature:
3000K
Lumen output:
5349
Gear:
Non-adjustable
Length:
1700mm
Finishing:
Gloss grey

Features

Certificates

Photometric data

Do you need more information?

Product variants

CodeWKlm outGearLengthFinishinglmGear
1474143355W3000K5349-1700mmGrey9200Non-adjustable
1474143055W3000K5349-1700mmWhite9200Non-adjustable
1474142337W3000K3566-1137mmGrey6000Non-adjustable
1474142037W3000K3566-1137mmWhite6000Non-adjustable
1474141328W3000K2850-1700mmGrey4600Non-adjustable
1474141028W3000K2850-1700mmWhite4600Non-adjustable
1474140319W3000K1900-1137mmGrey3000Non-adjustable
1474140019W3000K1900-1137mmWhite3000Non-adjustable
1474043355W4000K5642-1700mmGrey9200Non-adjustable
1474043055W4000K5642-1700mmWhite9200Non-adjustable
1474042337W4000K3761-1137mmGrey6000Non-adjustable
1474042037W4000K3761-1137mmWhite6000Non-adjustable
1474041328W4000K3006-1700mmGrey4600Non-adjustable
1474041028W4000K3006-1700mmWhite4600Non-adjustable
1474040319W4000K2004-1137mmGrey3000Non-adjustable
1474040019W4000K2004-1137mmWhite3000Non-adjustable
1478140319W3000K1900DALI1137mmGrey3000Adjustable DALI
1478140019W3000K1900DALI1137mmWhite3000Adjustable DALI
1478040319W4000K2004DALI1137mmGrey3000Adjustable DALI
1478040019W4000K2004DALI1137mmWhite3000Adjustable DALI
1478141328W3000K2850DALI1700mmGrey4600Adjustable DALI
1478141028W3000K2850DALI1700mmWhite4600Adjustable DALI
1478041328W4000K3006DALI1700mmGrey4600Adjustable DALI
1478041028W4000K3006DALI1700mmWhite4600Adjustable DALI

Accessories